AirNav   Air Wisconsin Up To $57,000 Bonus
 
 1178 users online  

5FL3 Hospital Brandon Helistop
Brandon, Florida, USA

GOING TO BRANDON?


FAA INFORMATION EFFECTIVE 07 NOVEMBER 2019

Location

FAA Identifier: 5FL3
Lat/Long: 27-55-58.4400N 082-17-19.5800W
27-55.974000N 082-17.326333W
27.9329000,-82.2887722
(estimated)
Elevation: 64 ft. / 20 m (estimated)
Variation: 02W (1985)
Time zone: UTC -5 (UTC -4 during Daylight Saving Time)
Zip code: 33511

Heliport Operations

Heliport use: Private use, MEDICAL.
Activation date: 11/1989
Control tower: no
ARTCC: MIAMI CENTER
FSS: SAINT PETERSBURG FLIGHT SERVICE STATION
Attendance: UNATNDD
Wind indicator: yes
Segmented circle: no
Lights: FOR PERIMETER LGTS PHONE 813-681-5551.

Heliport Communications

WX AWOS-3 at VDF (6 nm NW): 121.125 (813-630-0924)
WX AWOS-3 at PCM (8 nm NE): 120.025 (813-764-8259)
WX AWOS-3 at TPF (9 nm W): 118.925 (813-251-6824)
WX ASOS at TPA (13 nm W): PHONE 813-873-7228
WX AWOS-3PT at LAL (15 nm E): 118.025 (863-834-2030)
WX AWOS-3PT at ZPH (19 nm N): 118.975 (813-780-0031)

Nearby radio navigation aids

VOR radial/distance  VOR name  Freq  Var
LALr257/14.9LAKELAND VORTAC116.0001E
PIEr091/21.0ST PETERSBURG VORTAC116.4005W
SRQr030/34.8SARASOTA VOR/DME117.0005W

Heliport Services

Runway Information

Helipad H1

Dimensions: 40 x 40 ft. / 12 x 12 m
Surface: concrete
Runway edge lights: PERI
Latitude: 27-55.974000N
Longitude: 082-17.326333W
Elevation: 64.0 ft.
Traffic pattern: leftleft

Heliport Ownership and Management from official FAA records

Ownership: Privately-owned
Owner: HOSPITAL, BRANDON
119 OAKFIELD DR
BRANDON, FL 33511
Phone 813-916-0600
Manager: RICHARD WALKER
119 OAKFIELD DR
BRANDON, FL 33511
Phone 813-916-0477

Additional Remarks

A52 40' BLDG 147' E.
FOR CD CTC TAMPA APCH AT 813-878-2528

Instrument Procedures

There are no published instrument procedures at 5FL3.

Some nearby airports with instrument procedures:

KVDF - Tampa Executive Airport (6 nm NW)
KPCM - Plant City Airport (8 nm NE)
KTPF - Peter O Knight Airport (9 nm W)
KTPA - Tampa International Airport (13 nm W)
KMCF - MacDill Air Force Base (13 nm W)
KLAL - Lakeland Linder International Airport (15 nm E)
KZPH - Zephyrhills Municipal Airport (19 nm N)
 
Loc | Ops | Rwys | IFR | FBO | Links
Com | Nav | Svcs | Stats | Notes


 
Area around 5FL3 (Hospital Brandon Helistop)
 
Road maps at: MapQuest Bing Google
 
Aerial photo
No photo
 
Sectional chart

 
Airport distance calculator
Flying to Hospital Brandon Helistop? Find the distance to fly.

From to 5FL3

Sunrise and sunset
Times for 21-Nov-2019
 Local
(UTC-5)
 Zulu
(UTC)
Morning civil twilight06:3111:31
Sunrise06:5611:56
Sunset17:3422:34
Evening civil twilight17:5922:59

Current date and time
Zulu (UTC)  21-Nov-2019 14:22:40
Local (UTC-5)  21-Nov-2019 09:22:40
 
METAR
KVDF 
6nm NW 
211355Z AUTO 00000KT 10SM CLR 15/13 A3024 RMK AO2
KPCM 
8nm NE 
211355Z AUTO 03006KT 10SM CLR 16/13 A3025 RMK AO2
KTPF 
9nm W 
211355Z AUTO 06009KT 10SM CLR 17/13 A3024 RMK AO2
KMCF 
13nm W 
211356Z AUTO 08009KT 10SM CLR 16/12 A3022 RMK AO2 SLP237 T01630121 FZRANO $
KTPA 
13nm W 
211353Z 04006KT 10SM FEW250 16/11 A3024 RMK AO2 SLP239 T01610106
KLAL 
15nm E 
211350Z 03004KT 10SM SKC 16/12 A3024
KZPH 
19nm N 
211355Z AUTO 03005KT 10SM CLR 14/12 A3025 RMK A02 T01380120
TAF
KMCF 
13nm W 
210900Z 2109/2215 06009KT 9999 FEW030 QNH3010INS TX21/2120Z TN15/2111Z
KTPA 
13nm W 
211131Z 2112/2218 05004KT P6SM SKC FM211500 08006KT P6SM FEW250 FM211800 13007KT P6SM SCT250 FM212100 03006KT P6SM FEW250 FM220100 VRB04KT P6SM SKC FM221500 10006KT P6SM FEW250
KLAL 
15nm E 
211131Z 2112/2212 VRB03KT P6SM SKC FM211500 08007KT P6SM FEW250 FM220100 VRB03KT P6SM SKC
NOTAMs
Click for the latest NOTAMs
NOTAMs are issued by the DoD/FAA and will open in a separate window not controlled by AirNav.

 

 
 

Would you like to see your business listed on this page?

 If your business provides an interesting product or service to pilots, flight crews, aircraft, or users of the Hospital Brandon Helistop, you should consider listing it here.  To start the listing process, click on the button below
 
Add a business
 

Other Pages about Hospital Brandon Helistop

Update a link
 
Copyright © AirNav, LLC. All rights reserved. Privacy Policy  Contact